sensor_id;sensor_type;location;lat;lon;timestamp;P1;durP1;ratioP1;P2;durP2;ratioP2
58360;SDS011;44164;44.954;10.068;2023-04-21T00:00:23;3.40;;;2.70;;
58360;SDS011;44164;44.954;10.068;2023-04-21T00:02:49;3.97;;;3.00;;
58360;SDS011;44164;44.954;10.068;2023-04-21T00:05:15;3.70;;;2.97;;
58360;SDS011;44164;44.954;10.068;2023-04-21T00:07:41;3.63;;;3.08;;
58360;SDS011;44164;44.954;10.068;2023-04-21T00:10:08;3.70;;;2.88;;
58360;SDS011;44164;44.954;10.068;2023-04-21T00:12:35;3.70;;;3.00;;
58360;SDS011;44164;44.954;10.068;2023-04-21T00:15:02;5.65;;;2.97;;
58360;SDS011;44164;44.954;10.068;2023-04-21T00:17:29;4.03;;;2.80;;
58360;SDS011;44164;44.954;10.068;2023-04-21T00:19:55;3.40;;;2.75;;
58360;SDS011;44164;44.954;10.068;2023-04-21T00:22:21;3.72;;;2.70;;
58360;SDS011;44164;44.954;10.068;2023-04-21T00:24:47;4.15;;;2.70;;
58360;SDS011;44164;44.954;10.068;2023-04-21T00:27:14;3.80;;;2.42;;
58360;SDS011;44164;44.954;10.068;2023-04-21T00:29:40;4.38;;;2.50;;
58360;SDS011;44164;44.954;10.068;2023-04-21T00:32:06;3.13;;;2.10;;
58360;SDS011;44164;44.954;10.068;2023-04-21T00:34:34;3.58;;;2.58;;
58360;SDS011;44164;44.954;10.068;2023-04-21T00:37:00;2.97;;;2.40;;
58360;SDS011;44164;44.954;10.068;2023-04-21T00:39:27;3.38;;;2.63;;
58360;SDS011;44164;44.954;10.068;2023-04-21T00:41:53;2.95;;;2.47;;
58360;SDS011;44164;44.954;10.068;2023-04-21T00:44:20;3.72;;;2.70;;
58360;SDS011;44164;44.954;10.068;2023-04-21T00:46:46;4.80;;;2.70;;
58360;SDS011;44164;44.954;10.068;2023-04-21T00:49:13;3.58;;;2.70;;
58360;SDS011;44164;44.954;10.068;2023-04-21T00:51:41;3.17;;;2.50;;
58360;SDS011;44164;44.954;10.068;2023-04-21T00:54:07;4.88;;;2.80;;
58360;SDS011;44164;44.954;10.068;2023-04-21T00:56:34;3.28;;;2.40;;
58360;SDS011;44164;44.954;10.068;2023-04-21T00:59:01;3.28;;;2.42;;
58360;SDS011;44164;44.954;10.068;2023-04-21T01:01:29;3.47;;;2.57;;
58360;SDS011;44164;44.954;10.068;2023-04-21T01:03:58;3.92;;;2.60;;
58360;SDS011;44164;44.954;10.068;2023-04-21T01:06:31;3.00;;;2.33;;
58360;SDS011;44164;44.954;10.068;2023-04-21T01:08:59;3.67;;;2.70;;
58360;SDS011;44164;44.954;10.068;2023-04-21T01:11:25;3.03;;;2.58;;
58360;SDS011;44164;44.954;10.068;2023-04-21T01:13:52;3.63;;;2.70;;
58360;SDS011;44164;44.954;10.068;2023-04-21T01:16:21;3.53;;;2.45;;
58360;SDS011;44164;44.954;10.068;2023-04-21T01:18:49;3.80;;;3.00;;
58360;SDS011;44164;44.954;10.068;2023-04-21T01:21:18;3.67;;;2.78;;
58360;SDS011;44164;44.954;10.068;2023-04-21T01:23:45;3.28;;;2.47;;
58360;SDS011;44164;44.954;10.068;2023-04-21T01:26:11;3.35;;;2.60;;
58360;SDS011;44164;44.954;10.068;2023-04-21T01:28:37;4.13;;;2.90;;
58360;SDS011;44164;44.954;10.068;2023-04-21T01:31:03;3.38;;;2.55;;
58360;SDS011;44164;44.954;10.068;2023-04-21T01:33:30;3.13;;;2.30;;
58360;SDS011;44164;44.954;10.068;2023-04-21T01:35:57;3.57;;;2.83;;
58360;SDS011;44164;44.954;10.068;2023-04-21T01:40:52;3.17;;;2.30;;
58360;SDS011;44164;44.954;10.068;2023-04-21T01:43:20;5.25;;;2.88;;
58360;SDS011;44164;44.954;10.068;2023-04-21T01:45:48;3.38;;;2.67;;
58360;SDS011;44164;44.954;10.068;2023-04-21T01:48:14;3.30;;;2.60;;
58360;SDS011;44164;44.954;10.068;2023-04-21T01:50:40;3.95;;;2.80;;
58360;SDS011;44164;44.954;10.068;2023-04-21T01:53:08;2.90;;;2.40;;
58360;SDS011;44164;44.954;10.068;2023-04-21T01:55:35;2.90;;;2.53;;
58360;SDS011;44164;44.954;10.068;2023-04-21T01:58:01;3.33;;;2.70;;
58360;SDS011;44164;44.954;10.068;2023-04-21T02:00:28;2.80;;;2.17;;
58360;SDS011;44164;44.954;10.068;2023-04-21T02:02:56;2.53;;;2.25;;
58360;SDS011;44164;44.954;10.068;2023-04-21T02:05:22;2.88;;;2.22;;
58360;SDS011;44164;44.954;10.068;2023-04-21T02:07:48;2.65;;;2.25;;
58360;SDS011;44164;44.954;10.068;2023-04-21T02:10:14;3.67;;;2.40;;
58360;SDS011;44164;44.954;10.068;2023-04-21T02:12:42;2.08;;;1.73;;
58360;SDS011;44164;44.954;10.068;2023-04-21T02:15:09;3.17;;;2.40;;
58360;SDS011;44164;44.954;10.068;2023-04-21T02:17:35;2.75;;;2.33;;
58360;SDS011;44164;44.954;10.068;2023-04-21T02:20:02;2.85;;;2.30;;
58360;SDS011;44164;44.954;10.068;2023-04-21T02:22:29;3.45;;;2.20;;
58360;SDS011;44164;44.954;10.068;2023-04-21T02:24:57;3.53;;;2.80;;
58360;SDS011;44164;44.954;10.068;2023-04-21T02:27:23;3.47;;;2.20;;
58360;SDS011;44164;44.954;10.068;2023-04-21T02:29:50;2.95;;;2.20;;
58360;SDS011;44164;44.954;10.068;2023-04-21T02:32:16;2.30;;;1.75;;
58360;SDS011;44164;44.954;10.068;2023-04-21T02:34:43;2.90;;;2.13;;
58360;SDS011;44164;44.954;10.068;2023-04-21T02:37:09;3.03;;;2.13;;
58360;SDS011;44164;44.954;10.068;2023-04-21T02:39:36;2.28;;;1.80;;
58360;SDS011;44164;44.954;10.068;2023-04-21T02:42:04;2.50;;;2.17;;
58360;SDS011;44164;44.954;10.068;2023-04-21T02:44:30;3.05;;;2.20;;
58360;SDS011;44164;44.954;10.068;2023-04-21T02:46:56;3.80;;;2.83;;
58360;SDS011;44164;44.954;10.068;2023-04-21T02:49:22;4.05;;;2.00;;
58360;SDS011;44164;44.954;10.068;2023-04-21T02:51:49;2.85;;;2.25;;
58360;SDS011;44164;44.954;10.068;2023-04-21T02:54:15;2.53;;;2.15;;
58360;SDS011;44164;44.954;10.068;2023-04-21T02:56:41;3.25;;;2.13;;
58360;SDS011;44164;44.954;10.068;2023-04-21T02:59:07;3.55;;;2.22;;
58360;SDS011;44164;44.954;10.068;2023-04-21T03:01:33;3.78;;;2.50;;
58360;SDS011;44164;44.954;10.068;2023-04-21T03:04:00;2.95;;;2.10;;
58360;SDS011;44164;44.954;10.068;2023-04-21T03:06:26;3.42;;;2.33;;
58360;SDS011;44164;44.954;10.068;2023-04-21T03:08:52;2.78;;;2.10;;
58360;SDS011;44164;44.954;10.068;2023-04-21T03:11:18;3.00;;;2.47;;
58360;SDS011;44164;44.954;10.068;2023-04-21T03:13:44;2.88;;;2.40;;
58360;SDS011;44164;44.954;10.068;2023-04-21T03:16:11;3.28;;;2.17;;
58360;SDS011;44164;44.954;10.068;2023-04-21T03:18:37;2.90;;;1.92;;
58360;SDS011;44164;44.954;10.068;2023-04-21T03:21:04;3.53;;;2.15;;
58360;SDS011;44164;44.954;10.068;2023-04-21T03:23:30;3.00;;;2.15;;
58360;SDS011;44164;44.954;10.068;2023-04-21T03:25:56;2.22;;;1.80;;
58360;SDS011;44164;44.954;10.068;2023-04-21T03:28:22;2.67;;;1.98;;
58360;SDS011;44164;44.954;10.068;2023-04-21T03:30:48;2.15;;;1.75;;
58360;SDS011;44164;44.954;10.068;2023-04-21T03:33:14;2.53;;;2.03;;
58360;SDS011;44164;44.954;10.068;2023-04-21T03:35:40;3.47;;;2.42;;
58360;SDS011;44164;44.954;10.068;2023-04-21T03:38:07;3.65;;;2.40;;
58360;SDS011;44164;44.954;10.068;2023-04-21T03:40:34;3.65;;;2.05;;
58360;SDS011;44164;44.954;10.068;2023-04-21T03:43:01;2.77;;;2.23;;
58360;SDS011;44164;44.954;10.068;2023-04-21T03:45:27;2.92;;;2.00;;
58360;SDS011;44164;44.954;10.068;2023-04-21T03:47:53;2.67;;;2.30;;
58360;SDS011;44164;44.954;10.068;2023-04-21T03:50:20;3.35;;;2.03;;
58360;SDS011;44164;44.954;10.068;2023-04-21T03:52:46;2.50;;;2.00;;
58360;SDS011;44164;44.954;10.068;2023-04-21T03:55:12;3.70;;;2.60;;
58360;SDS011;44164;44.954;10.068;2023-04-21T03:57:39;2.45;;;1.95;;
58360;SDS011;44164;44.954;10.068;2023-04-21T04:00:06;2.92;;;1.98;;
58360;SDS011;44164;44.954;10.068;2023-04-21T04:02:40;3.55;;;2.10;;
58360;SDS011;44164;44.954;10.068;2023-04-21T04:05:06;2.75;;;2.20;;
58360;SDS011;44164;44.954;10.068;2023-04-21T04:07:32;3.42;;;2.28;;
58360;SDS011;44164;44.954;10.068;2023-04-21T04:09:58;2.75;;;2.13;;
58360;SDS011;44164;44.954;10.068;2023-04-21T04:12:24;2.95;;;2.45;;
58360;SDS011;44164;44.954;10.068;2023-04-21T04:14:51;3.95;;;2.45;;
58360;SDS011;44164;44.954;10.068;2023-04-21T04:17:17;2.78;;;2.30;;
58360;SDS011;44164;44.954;10.068;2023-04-21T04:19:43;2.63;;;1.80;;
58360;SDS011;44164;44.954;10.068;2023-04-21T04:22:09;2.88;;;2.00;;
58360;SDS011;44164;44.954;10.068;2023-04-21T04:24:35;3.58;;;2.17;;
58360;SDS011;44164;44.954;10.068;2023-04-21T04:27:01;2.65;;;2.08;;
58360;SDS011;44164;44.954;10.068;2023-04-21T04:29:28;4.15;;;2.17;;
58360;SDS011;44164;44.954;10.068;2023-04-21T04:31:54;3.03;;;2.17;;
58360;SDS011;44164;44.954;10.068;2023-04-21T04:34:22;3.85;;;2.05;;
58360;SDS011;44164;44.954;10.068;2023-04-21T04:36:49;3.08;;;1.80;;
58360;SDS011;44164;44.954;10.068;2023-04-21T04:39:15;2.58;;;2.00;;
58360;SDS011;44164;44.954;10.068;2023-04-21T04:41:42;2.72;;;1.90;;
58360;SDS011;44164;44.954;10.068;2023-04-21T04:44:08;2.50;;;1.90;;
58360;SDS011;44164;44.954;10.068;2023-04-21T04:46:35;2.20;;;1.70;;
58360;SDS011;44164;44.954;10.068;2023-04-21T04:49:01;2.40;;;1.70;;
58360;SDS011;44164;44.954;10.068;2023-04-21T04:51:28;2.30;;;1.90;;
58360;SDS011;44164;44.954;10.068;2023-04-21T04:53:54;4.75;;;1.98;;
58360;SDS011;44164;44.954;10.068;2023-04-21T04:56:20;3.05;;;1.90;;
58360;SDS011;44164;44.954;10.068;2023-04-21T04:58:47;2.72;;;2.17;;
58360;SDS011;44164;44.954;10.068;2023-04-21T05:01:13;2.60;;;2.10;;
58360;SDS011;44164;44.954;10.068;2023-04-21T05:03:40;3.50;;;1.92;;
58360;SDS011;44164;44.954;10.068;2023-04-21T05:06:06;2.25;;;1.70;;
58360;SDS011;44164;44.954;10.068;2023-04-21T05:08:32;4.40;;;2.08;;
58360;SDS011;44164;44.954;10.068;2023-04-21T05:10:58;3.10;;;2.28;;
58360;SDS011;44164;44.954;10.068;2023-04-21T05:13:25;2.90;;;2.17;;
58360;SDS011;44164;44.954;10.068;2023-04-21T05:15:57;2.83;;;2.30;;
58360;SDS011;44164;44.954;10.068;2023-04-21T05:18:25;4.43;;;2.38;;
58360;SDS011;44164;44.954;10.068;2023-04-21T05:20:51;3.13;;;2.53;;
58360;SDS011;44164;44.954;10.068;2023-04-21T05:23:17;3.80;;;1.90;;
58360;SDS011;44164;44.954;10.068;2023-04-21T05:25:43;2.60;;;1.90;;
58360;SDS011;44164;44.954;10.068;2023-04-21T05:28:09;2.65;;;1.98;;
58360;SDS011;44164;44.954;10.068;2023-04-21T05:30:36;2.88;;;2.35;;
58360;SDS011;44164;44.954;10.068;2023-04-21T05:33:02;2.95;;;2.20;;
58360;SDS011;44164;44.954;10.068;2023-04-21T05:35:31;3.72;;;2.30;;
58360;SDS011;44164;44.954;10.068;2023-04-21T05:37:58;2.92;;;2.58;;
58360;SDS011;44164;44.954;10.068;2023-04-21T05:40:24;4.65;;;2.05;;
58360;SDS011;44164;44.954;10.068;2023-04-21T05:42:50;4.10;;;3.03;;
58360;SDS011;44164;44.954;10.068;2023-04-21T05:45:16;4.47;;;3.78;;
58360;SDS011;44164;44.954;10.068;2023-04-21T05:47:43;3.88;;;3.20;;
58360;SDS011;44164;44.954;10.068;2023-04-21T05:50:09;3.35;;;2.88;;
58360;SDS011;44164;44.954;10.068;2023-04-21T05:52:35;4.70;;;3.40;;
58360;SDS011;44164;44.954;10.068;2023-04-21T05:55:02;7.47;;;3.97;;
58360;SDS011;44164;44.954;10.068;2023-04-21T05:57:28;4.05;;;2.90;;
58360;SDS011;44164;44.954;10.068;2023-04-21T05:59:54;4.38;;;3.20;;
58360;SDS011;44164;44.954;10.068;2023-04-21T06:02:21;7.50;;;3.33;;
58360;SDS011;44164;44.954;10.068;2023-04-21T06:04:47;4.43;;;3.08;;
58360;SDS011;44164;44.954;10.068;2023-04-21T06:07:13;3.92;;;2.72;;
58360;SDS011;44164;44.954;10.068;2023-04-21T06:09:39;4.07;;;2.97;;
58360;SDS011;44164;44.954;10.068;2023-04-21T06:12:06;3.55;;;2.58;;
58360;SDS011;44164;44.954;10.068;2023-04-21T06:14:32;7.45;;;2.67;;
58360;SDS011;44164;44.954;10.068;2023-04-21T06:16:58;6.88;;;2.35;;
58360;SDS011;44164;44.954;10.068;2023-04-21T06:19:24;4.22;;;2.63;;
58360;SDS011;44164;44.954;10.068;2023-04-21T06:21:50;5.95;;;2.65;;
58360;SDS011;44164;44.954;10.068;2023-04-21T06:24:17;3.90;;;2.25;;
58360;SDS011;44164;44.954;10.068;2023-04-21T06:26:50;4.82;;;2.97;;
58360;SDS011;44164;44.954;10.068;2023-04-21T06:29:17;4.53;;;2.85;;
58360;SDS011;44164;44.954;10.068;2023-04-21T06:31:44;5.60;;;2.63;;
58360;SDS011;44164;44.954;10.068;2023-04-21T06:34:10;4.03;;;2.95;;
58360;SDS011;44164;44.954;10.068;2023-04-21T06:36:36;4.22;;;2.50;;
58360;SDS011;44164;44.954;10.068;2023-04-21T06:39:02;3.88;;;2.33;;
58360;SDS011;44164;44.954;10.068;2023-04-21T06:41:29;6.40;;;2.85;;
58360;SDS011;44164;44.954;10.068;2023-04-21T06:43:55;3.50;;;2.60;;
58360;SDS011;44164;44.954;10.068;2023-04-21T06:46:21;6.63;;;2.40;;
58360;SDS011;44164;44.954;10.068;2023-04-21T06:48:48;3.25;;;2.40;;
58360;SDS011;44164;44.954;10.068;2023-04-21T06:51:14;3.35;;;2.28;;
58360;SDS011;44164;44.954;10.068;2023-04-21T06:53:40;3.75;;;2.70;;
58360;SDS011;44164;44.954;10.068;2023-04-21T06:56:06;4.25;;;3.13;;
58360;SDS011;44164;44.954;10.068;2023-04-21T06:58:32;5.25;;;2.63;;
58360;SDS011;44164;44.954;10.068;2023-04-21T07:00:58;4.00;;;2.35;;
58360;SDS011;44164;44.954;10.068;2023-04-21T07:03:24;4.03;;;2.20;;
58360;SDS011;44164;44.954;10.068;2023-04-21T07:05:50;7.63;;;2.70;;
58360;SDS011;44164;44.954;10.068;2023-04-21T07:08:16;3.20;;;2.67;;
58360;SDS011;44164;44.954;10.068;2023-04-21T07:10:42;5.53;;;2.60;;
58360;SDS011;44164;44.954;10.068;2023-04-21T07:13:08;3.15;;;2.47;;
58360;SDS011;44164;44.954;10.068;2023-04-21T07:15:34;5.32;;;2.58;;
58360;SDS011;44164;44.954;10.068;2023-04-21T07:18:00;4.57;;;2.65;;
58360;SDS011;44164;44.954;10.068;2023-04-21T07:20:27;3.30;;;2.60;;
58360;SDS011;44164;44.954;10.068;2023-04-21T07:22:53;3.95;;;3.03;;
58360;SDS011;44164;44.954;10.068;2023-04-21T07:25:19;4.75;;;2.83;;
58360;SDS011;44164;44.954;10.068;2023-04-21T07:27:45;3.88;;;2.83;;
58360;SDS011;44164;44.954;10.068;2023-04-21T07:30:11;4.63;;;2.90;;
58360;SDS011;44164;44.954;10.068;2023-04-21T07:32:37;2.72;;;2.22;;
58360;SDS011;44164;44.954;10.068;2023-04-21T07:35:04;4.15;;;2.67;;
58360;SDS011;44164;44.954;10.068;2023-04-21T07:37:31;3.85;;;2.42;;
58360;SDS011;44164;44.954;10.068;2023-04-21T07:39:57;5.05;;;2.20;;
58360;SDS011;44164;44.954;10.068;2023-04-21T07:42:23;4.90;;;2.50;;
58360;SDS011;44164;44.954;10.068;2023-04-21T07:44:51;4.25;;;2.80;;
58360;SDS011;44164;44.954;10.068;2023-04-21T07:47:18;3.05;;;2.70;;
58360;SDS011;44164;44.954;10.068;2023-04-21T07:49:44;3.63;;;2.60;;
58360;SDS011;44164;44.954;10.068;2023-04-21T07:52:10;5.18;;;2.70;;
58360;SDS011;44164;44.954;10.068;2023-04-21T07:54:36;4.25;;;3.08;;
58360;SDS011;44164;44.954;10.068;2023-04-21T07:57:02;3.95;;;2.88;;
58360;SDS011;44164;44.954;10.068;2023-04-21T07:59:28;3.88;;;3.30;;
58360;SDS011;44164;44.954;10.068;2023-04-21T08:01:54;3.88;;;2.60;;
58360;SDS011;44164;44.954;10.068;2023-04-21T08:04:21;4.43;;;3.20;;
58360;SDS011;44164;44.954;10.068;2023-04-21T08:06:47;5.88;;;2.47;;
58360;SDS011;44164;44.954;10.068;2023-04-21T08:09:13;4.32;;;2.83;;
58360;SDS011;44164;44.954;10.068;2023-04-21T08:11:39;3.72;;;2.75;;
58360;SDS011;44164;44.954;10.068;2023-04-21T08:14:05;3.33;;;2.72;;
58360;SDS011;44164;44.954;10.068;2023-04-21T08:16:31;4.60;;;3.20;;
58360;SDS011;44164;44.954;10.068;2023-04-21T08:18:58;4.30;;;2.85;;
58360;SDS011;44164;44.954;10.068;2023-04-21T08:21:24;3.20;;;2.47;;
58360;SDS011;44164;44.954;10.068;2023-04-21T08:23:50;4.70;;;2.92;;
58360;SDS011;44164;44.954;10.068;2023-04-21T08:26:16;4.70;;;2.78;;
58360;SDS011;44164;44.954;10.068;2023-04-21T08:28:45;6.53;;;3.00;;
58360;SDS011;44164;44.954;10.068;2023-04-21T08:31:14;4.70;;;3.00;;
58360;SDS011;44164;44.954;10.068;2023-04-21T08:33:40;4.85;;;3.15;;
58360;SDS011;44164;44.954;10.068;2023-04-21T08:36:06;7.15;;;3.47;;
58360;SDS011;44164;44.954;10.068;2023-04-21T08:38:33;4.82;;;3.15;;
58360;SDS011;44164;44.954;10.068;2023-04-21T08:41:00;7.45;;;3.25;;
58360;SDS011;44164;44.954;10.068;2023-04-21T08:43:27;5.13;;;2.83;;
58360;SDS011;44164;44.954;10.068;2023-04-21T08:45:54;4.43;;;2.90;;
58360;SDS011;44164;44.954;10.068;2023-04-21T08:48:21;4.38;;;3.10;;
58360;SDS011;44164;44.954;10.068;2023-04-21T08:50:50;3.78;;;2.92;;
58360;SDS011;44164;44.954;10.068;2023-04-21T08:53:16;5.07;;;3.30;;
58360;SDS011;44164;44.954;10.068;2023-04-21T08:55:43;5.82;;;3.05;;
58360;SDS011;44164;44.954;10.068;2023-04-21T08:58:10;5.97;;;3.38;;
58360;SDS011;44164;44.954;10.068;2023-04-21T09:00:37;5.00;;;3.67;;
58360;SDS011;44164;44.954;10.068;2023-04-21T09:03:03;5.20;;;3.00;;
58360;SDS011;44164;44.954;10.068;2023-04-21T09:05:33;4.80;;;2.95;;
58360;SDS011;44164;44.954;10.068;2023-04-21T09:08:10;3.73;;;3.10;;
58360;SDS011;44164;44.954;10.068;2023-04-21T09:13:07;3.17;;;2.63;;
58360;SDS011;44164;44.954;10.068;2023-04-21T09:15:38;4.07;;;3.13;;
58360;SDS011;44164;44.954;10.068;2023-04-21T09:18:09;4.65;;;3.13;;
58360;SDS011;44164;44.954;10.068;2023-04-21T09:20:37;3.83;;;3.10;;
58360;SDS011;44164;44.954;10.068;2023-04-21T09:23:04;4.68;;;2.97;;
58360;SDS011;44164;44.954;10.068;2023-04-21T09:25:31;4.53;;;3.30;;
58360;SDS011;44164;44.954;10.068;2023-04-21T09:28:01;3.80;;;2.92;;
58360;SDS011;44164;44.954;10.068;2023-04-21T09:30:27;4.80;;;3.50;;
58360;SDS011;44164;44.954;10.068;2023-04-21T09:32:56;4.20;;;2.90;;
58360;SDS011;44164;44.954;10.068;2023-04-21T09:35:26;3.95;;;3.22;;
58360;SDS011;44164;44.954;10.068;2023-04-21T09:37:53;14.73;;;2.92;;
58360;SDS011;44164;44.954;10.068;2023-04-21T09:40:19;5.13;;;3.20;;
58360;SDS011;44164;44.954;10.068;2023-04-21T09:42:46;4.88;;;3.35;;
58360;SDS011;44164;44.954;10.068;2023-04-21T09:45:12;5.88;;;3.40;;
58360;SDS011;44164;44.954;10.068;2023-04-21T09:47:39;4.30;;;3.45;;
58360;SDS011;44164;44.954;10.068;2023-04-21T09:50:07;5.55;;;3.30;;
58360;SDS011;44164;44.954;10.068;2023-04-21T09:52:38;4.15;;;2.80;;
58360;SDS011;44164;44.954;10.068;2023-04-21T09:55:07;6.25;;;3.63;;
58360;SDS011;44164;44.954;10.068;2023-04-21T09:57:40;4.25;;;3.20;;
58360;SDS011;44164;44.954;10.068;2023-04-21T10:00:08;4.28;;;3.38;;
58360;SDS011;44164;44.954;10.068;2023-04-21T10:02:39;5.55;;;4.20;;
58360;SDS011;44164;44.954;10.068;2023-04-21T10:05:08;4.20;;;3.05;;
58360;SDS011;44164;44.954;10.068;2023-04-21T10:07:35;4.93;;;3.22;;
58360;SDS011;44164;44.954;10.068;2023-04-21T10:10:01;4.05;;;3.20;;
58360;SDS011;44164;44.954;10.068;2023-04-21T10:12:28;4.65;;;3.65;;
58360;SDS011;44164;44.954;10.068;2023-04-21T10:14:55;4.47;;;3.25;;
58360;SDS011;44164;44.954;10.068;2023-04-21T10:17:22;4.13;;;3.65;;
58360;SDS011;44164;44.954;10.068;2023-04-21T10:19:50;7.32;;;3.85;;
58360;SDS011;44164;44.954;10.068;2023-04-21T10:22:25;4.43;;;3.63;;
58360;SDS011;44164;44.954;10.068;2023-04-21T10:24:56;3.15;;;2.83;;
58360;SDS011;44164;44.954;10.068;2023-04-21T10:27:30;4.40;;;3.58;;
58360;SDS011;44164;44.954;10.068;2023-04-21T10:29:57;5.82;;;3.80;;
58360;SDS011;44164;44.954;10.068;2023-04-21T10:32:30;5.03;;;3.53;;
58360;SDS011;44164;44.954;10.068;2023-04-21T10:34:57;4.20;;;3.72;;
58360;SDS011;44164;44.954;10.068;2023-04-21T10:37:23;4.30;;;3.58;;
58360;SDS011;44164;44.954;10.068;2023-04-21T10:39:50;4.45;;;3.65;;
58360;SDS011;44164;44.954;10.068;2023-04-21T10:42:18;3.78;;;3.35;;
58360;SDS011;44164;44.954;10.068;2023-04-21T10:47:45;5.85;;;3.78;;
58360;SDS011;44164;44.954;10.068;2023-04-21T10:53:24;5.47;;;4.17;;
58360;SDS011;44164;44.954;10.068;2023-04-21T10:55:37;4.85;;;3.63;;
58360;SDS011;44164;44.954;10.068;2023-04-21T10:58:07;4.85;;;4.15;;
58360;SDS011;44164;44.954;10.068;2023-04-21T11:00:34;4.28;;;3.45;;
58360;SDS011;44164;44.954;10.068;2023-04-21T11:03:04;5.88;;;4.13;;
58360;SDS011;44164;44.954;10.068;2023-04-21T11:05:32;4.15;;;3.40;;
58360;SDS011;44164;44.954;10.068;2023-04-21T11:08:13;6.40;;;4.20;;
58360;SDS011;44164;44.954;10.068;2023-04-21T11:10:40;5.47;;;3.67;;
58360;SDS011;44164;44.954;10.068;2023-04-21T11:13:10;4.47;;;3.17;;
58360;SDS011;44164;44.954;10.068;2023-04-21T11:15:36;4.95;;;3.92;;
58360;SDS011;44164;44.954;10.068;2023-04-21T11:18:02;4.57;;;3.85;;
58360;SDS011;44164;44.954;10.068;2023-04-21T11:20:28;5.13;;;4.20;;
58360;SDS011;44164;44.954;10.068;2023-04-21T11:22:57;3.85;;;3.35;;
58360;SDS011;44164;44.954;10.068;2023-04-21T11:25:23;5.50;;;3.95;;
58360;SDS011;44164;44.954;10.068;2023-04-21T11:27:56;4.70;;;3.72;;
58360;SDS011;44164;44.954;10.068;2023-04-21T11:30:33;8.68;;;3.80;;
58360;SDS011;44164;44.954;10.068;2023-04-21T11:33:00;6.03;;;3.67;;
58360;SDS011;44164;44.954;10.068;2023-04-21T11:35:26;3.85;;;3.25;;
58360;SDS011;44164;44.954;10.068;2023-04-21T11:37:52;5.10;;;3.95;;
58360;SDS011;44164;44.954;10.068;2023-04-21T11:40:19;4.20;;;3.53;;
58360;SDS011;44164;44.954;10.068;2023-04-21T11:42:46;3.88;;;3.30;;
58360;SDS011;44164;44.954;10.068;2023-04-21T11:45:16;8.93;;;4.55;;
58360;SDS011;44164;44.954;10.068;2023-04-21T11:47:44;8.35;;;3.78;;
58360;SDS011;44164;44.954;10.068;2023-04-21T11:50:10;6.03;;;3.92;;
58360;SDS011;44164;44.954;10.068;2023-04-21T11:52:36;6.18;;;3.92;;
58360;SDS011;44164;44.954;10.068;2023-04-21T11:55:09;4.00;;;3.42;;
58360;SDS011;44164;44.954;10.068;2023-04-21T11:57:38;6.43;;;3.75;;
58360;SDS011;44164;44.954;10.068;2023-04-21T12:00:05;4.80;;;3.88;;
58360;SDS011;44164;44.954;10.068;2023-04-21T12:05:09;5.47;;;3.88;;
58360;SDS011;44164;44.954;10.068;2023-04-21T12:10:10;5.00;;;3.53;;
58360;SDS011;44164;44.954;10.068;2023-04-21T12:12:42;4.93;;;3.50;;
58360;SDS011;44164;44.954;10.068;2023-04-21T12:15:09;3.92;;;3.33;;
58360;SDS011;44164;44.954;10.068;2023-04-21T12:20:09;4.35;;;3.33;;
58360;SDS011;44164;44.954;10.068;2023-04-21T12:22:36;4.55;;;3.42;;
58360;SDS011;44164;44.954;10.068;2023-04-21T12:25:03;5.95;;;4.10;;
58360;SDS011;44164;44.954;10.068;2023-04-21T12:27:30;4.43;;;3.55;;
58360;SDS011;44164;44.954;10.068;2023-04-21T12:29:56;5.00;;;3.55;;
58360;SDS011;44164;44.954;10.068;2023-04-21T12:32:22;5.55;;;3.30;;
58360;SDS011;44164;44.954;10.068;2023-04-21T12:34:49;4.38;;;3.13;;
58360;SDS011;44164;44.954;10.068;2023-04-21T12:37:15;4.55;;;3.67;;
58360;SDS011;44164;44.954;10.068;2023-04-21T12:39:41;5.40;;;3.58;;
58360;SDS011;44164;44.954;10.068;2023-04-21T12:42:07;6.15;;;3.53;;
58360;SDS011;44164;44.954;10.068;2023-04-21T12:44:34;4.68;;;3.20;;
58360;SDS011;44164;44.954;10.068;2023-04-21T12:47:00;5.03;;;3.58;;
58360;SDS011;44164;44.954;10.068;2023-04-21T12:49:26;5.97;;;4.32;;
58360;SDS011;44164;44.954;10.068;2023-04-21T12:51:52;5.65;;;3.28;;
58360;SDS011;44164;44.954;10.068;2023-04-21T12:54:18;6.25;;;3.88;;
58360;SDS011;44164;44.954;10.068;2023-04-21T12:56:44;3.97;;;3.17;;
58360;SDS011;44164;44.954;10.068;2023-04-21T12:59:11;4.32;;;3.28;;
58360;SDS011;44164;44.954;10.068;2023-04-21T13:01:40;5.25;;;3.90;;
58360;SDS011;44164;44.954;10.068;2023-04-21T13:04:07;4.68;;;3.45;;
58360;SDS011;44164;44.954;10.068;2023-04-21T13:06:33;3.67;;;2.85;;
58360;SDS011;44164;44.954;10.068;2023-04-21T13:08:59;3.80;;;3.15;;
58360;SDS011;44164;44.954;10.068;2023-04-21T13:11:26;4.88;;;3.22;;
58360;SDS011;44164;44.954;10.068;2023-04-21T13:13:52;5.20;;;3.45;;
58360;SDS011;44164;44.954;10.068;2023-04-21T13:16:18;6.47;;;3.17;;
58360;SDS011;44164;44.954;10.068;2023-04-21T13:18:45;10.32;;;3.50;;
58360;SDS011;44164;44.954;10.068;2023-04-21T13:21:12;5.10;;;3.40;;
58360;SDS011;44164;44.954;10.068;2023-04-21T13:23:38;4.40;;;2.90;;
58360;SDS011;44164;44.954;10.068;2023-04-21T13:26:04;4.72;;;3.75;;
58360;SDS011;44164;44.954;10.068;2023-04-21T13:28:30;5.53;;;3.63;;
58360;SDS011;44164;44.954;10.068;2023-04-21T13:30:56;7.40;;;3.58;;
58360;SDS011;44164;44.954;10.068;2023-04-21T13:33:23;4.78;;;3.10;;
58360;SDS011;44164;44.954;10.068;2023-04-21T13:35:49;4.93;;;3.47;;
58360;SDS011;44164;44.954;10.068;2023-04-21T13:38:15;5.38;;;2.83;;
58360;SDS011;44164;44.954;10.068;2023-04-21T13:40:41;5.22;;;3.30;;
58360;SDS011;44164;44.954;10.068;2023-04-21T13:43:08;3.30;;;2.78;;
58360;SDS011;44164;44.954;10.068;2023-04-21T13:45:34;4.55;;;3.28;;
58360;SDS011;44164;44.954;10.068;2023-04-21T13:48:00;3.25;;;2.78;;
58360;SDS011;44164;44.954;10.068;2023-04-21T13:50:26;4.18;;;3.00;;
58360;SDS011;44164;44.954;10.068;2023-04-21T13:52:52;4.55;;;2.70;;
58360;SDS011;44164;44.954;10.068;2023-04-21T13:55:18;5.97;;;3.42;;
58360;SDS011;44164;44.954;10.068;2023-04-21T13:57:45;8.40;;;3.55;;
58360;SDS011;44164;44.954;10.068;2023-04-21T14:00:11;5.25;;;2.88;;
58360;SDS011;44164;44.954;10.068;2023-04-21T14:02:38;4.85;;;3.05;;
58360;SDS011;44164;44.954;10.068;2023-04-21T14:05:04;5.53;;;4.05;;
58360;SDS011;44164;44.954;10.068;2023-04-21T14:07:30;3.97;;;2.95;;
58360;SDS011;44164;44.954;10.068;2023-04-21T14:09:57;4.80;;;3.38;;
58360;SDS011;44164;44.954;10.068;2023-04-21T14:12:23;4.10;;;3.30;;
58360;SDS011;44164;44.954;10.068;2023-04-21T14:14:51;4.00;;;3.13;;
58360;SDS011;44164;44.954;10.068;2023-04-21T14:17:17;3.60;;;2.85;;
58360;SDS011;44164;44.954;10.068;2023-04-21T14:19:43;4.47;;;2.95;;
58360;SDS011;44164;44.954;10.068;2023-04-21T14:22:09;3.10;;;2.50;;
58360;SDS011;44164;44.954;10.068;2023-04-21T14:24:35;5.65;;;2.83;;
58360;SDS011;44164;44.954;10.068;2023-04-21T14:27:01;3.80;;;3.25;;
58360;SDS011;44164;44.954;10.068;2023-04-21T14:29:27;3.85;;;3.00;;
58360;SDS011;44164;44.954;10.068;2023-04-21T14:31:53;5.78;;;2.80;;
58360;SDS011;44164;44.954;10.068;2023-04-21T14:34:25;3.42;;;2.55;;
58360;SDS011;44164;44.954;10.068;2023-04-21T14:36:51;3.63;;;2.58;;
58360;SDS011;44164;44.954;10.068;2023-04-21T14:39:18;3.53;;;2.67;;
58360;SDS011;44164;44.954;10.068;2023-04-21T14:41:44;3.38;;;3.03;;
58360;SDS011;44164;44.954;10.068;2023-04-21T14:44:10;3.72;;;2.35;;
58360;SDS011;44164;44.954;10.068;2023-04-21T14:46:36;3.50;;;2.88;;
58360;SDS011;44164;44.954;10.068;2023-04-21T14:49:03;4.72;;;2.95;;